EDLW/DTM METAR and TAF weather

Enter ICAO airport designator
Station Type Date Time Source
EDLW METAR 2020/09/21 06:50 UTC NOAA

EDLW 210650Z 00000KT CAVOK 12/08 Q1017


Station Type Date Time Source
EDLW Decoded METAR 2020/09/21 06:50 UTC NOAA

Dortmund / Wickede, Germany (EDLW) 51-31N 007-37E
Sep 21, 2020 - 02:50 AM EDT / 2020.09.21 0650 UTC
Wind: Calm:0
Visibility: greater than 7 mile(s):0
Temperature: 53 F (12 C)
Dew Point: 46 F (8 C)
Relative Humidity: 76%
Pressure (altimeter): 30.03 in. Hg (1017 hPa)
ob: EDLW 210650Z 00000KT CAVOK 12/08 Q1017
cycle: 7

Station Type Date Time Source
EDLW TAF 2020/09/21 06:30 UTC NOAA

TAF EDLW 210500Z 2106/2206 VRB02KT CAVOK
BECMG 2108/2111 04005KT
BECMG 2117/2120 10004KT
BECMG 2121/2124 17006KT

Example: see airport list